createdAt,value
2024-02-29T00:02:49.422Z,2.70
2024-02-29T00:05:53.611Z,2.80
2024-02-29T00:08:56.706Z,2.80
2024-02-29T00:11:59.511Z,3.00
2024-02-29T00:15:02.001Z,2.75
2024-02-29T00:18:05.064Z,2.70
2024-02-29T00:21:08.345Z,2.80
2024-02-29T00:24:11.441Z,3.00
2024-02-29T00:27:14.491Z,2.92
2024-02-29T00:30:18.187Z,3.10
2024-02-29T00:33:21.901Z,2.70
2024-02-29T00:36:25.836Z,3.10
2024-02-29T00:39:28.201Z,3.05
2024-02-29T00:42:31.291Z,3.05
2024-02-29T00:45:34.494Z,3.28
2024-02-29T00:48:37.480Z,3.20
2024-02-29T00:51:40.963Z,2.97
2024-02-29T00:54:44.078Z,2.95
2024-02-29T00:57:47.028Z,3.22
2024-02-29T01:00:50.378Z,3.30
2024-02-29T01:03:54.131Z,3.25
2024-02-29T01:06:56.951Z,3.10
2024-02-29T01:10:00.386Z,3.42
2024-02-29T01:13:04.061Z,3.30
2024-02-29T01:16:08.358Z,3.30
2024-02-29T01:19:12.487Z,3.00
2024-02-29T01:22:17.902Z,2.85
2024-02-29T01:25:21.006Z,2.60
2024-02-29T01:28:24.621Z,2.50
2024-02-29T01:31:27.395Z,2.10
2024-02-29T01:34:31.008Z,2.40
2024-02-29T01:37:33.755Z,2.67
2024-02-29T01:40:36.582Z,2.20
2024-02-29T01:43:39.393Z,2.47
2024-02-29T01:46:42.300Z,2.75
2024-02-29T01:49:45.593Z,2.70
2024-02-29T01:52:48.693Z,2.20
2024-02-29T01:55:50.990Z,2.65
2024-02-29T01:58:54.170Z,2.50
2024-02-29T02:01:57.608Z,2.30
2024-02-29T02:05:00.180Z,2.78
2024-02-29T02:08:02.587Z,2.58
2024-02-29T02:11:05.797Z,2.75
2024-02-29T02:14:08.842Z,2.53
2024-02-29T02:17:11.956Z,2.80
2024-02-29T02:20:15.066Z,2.67
2024-02-29T02:23:17.431Z,2.78
2024-02-29T02:26:20.336Z,2.65
2024-02-29T02:29:23.059Z,2.70
2024-02-29T02:32:26.725Z,2.90
2024-02-29T02:35:29.938Z,2.75
2024-02-29T02:38:32.655Z,2.72
2024-02-29T02:41:35.299Z,2.80
2024-02-29T02:44:38.074Z,2.60
2024-02-29T02:47:41.319Z,3.05
2024-02-29T02:50:44.596Z,3.00
2024-02-29T02:53:46.748Z,3.00
2024-02-29T02:56:49.691Z,2.80
2024-02-29T02:59:52.029Z,3.10
2024-02-29T03:02:54.920Z,2.92
2024-02-29T03:05:58.041Z,3.05
2024-02-29T03:09:00.808Z,2.97
2024-02-29T03:12:03.912Z,3.10
2024-02-29T03:15:06.199Z,3.38
2024-02-29T03:18:08.605Z,3.17
2024-02-29T03:21:11.163Z,2.95
2024-02-29T03:24:14.745Z,3.20
2024-02-29T03:27:17.936Z,3.30
2024-02-29T03:30:20.319Z,3.13
2024-02-29T03:33:23.271Z,2.83
2024-02-29T03:36:26.365Z,2.67
2024-02-29T03:39:29.306Z,2.88
2024-02-29T03:42:32.929Z,2.60
2024-02-29T03:45:36.608Z,2.70
2024-02-29T03:48:38.729Z,2.65
2024-02-29T03:51:41.237Z,2.55
2024-02-29T03:54:44.159Z,2.90
2024-02-29T03:57:46.958Z,2.63
2024-02-29T04:00:50.396Z,3.00
2024-02-29T04:03:53.669Z,2.58
2024-02-29T04:06:56.538Z,3.08
2024-02-29T04:09:59.697Z,2.88
2024-02-29T04:13:02.768Z,2.80
2024-02-29T04:16:05.896Z,2.90
2024-02-29T04:19:08.825Z,2.90
2024-02-29T04:22:12.416Z,3.10
2024-02-29T04:25:16.573Z,2.95
2024-02-29T04:28:20.298Z,3.30
2024-02-29T04:31:23.215Z,3.60
2024-02-29T04:34:26.608Z,3.40
2024-02-29T04:37:29.714Z,3.33
2024-02-29T04:40:32.392Z,3.28
2024-02-29T04:43:36.061Z,2.88
2024-02-29T04:46:39.026Z,3.33
2024-02-29T04:49:42.223Z,3.80
2024-02-29T04:52:45.018Z,3.50
2024-02-29T04:55:48.104Z,3.65
2024-02-29T04:58:50.631Z,3.58
2024-02-29T05:01:53.726Z,3.55
2024-02-29T05:04:56.545Z,3.42
2024-02-29T05:07:59.217Z,3.70
2024-02-29T05:11:01.790Z,3.42
2024-02-29T05:14:04.696Z,3.55
2024-02-29T05:17:07.384Z,3.45
2024-02-29T05:20:09.877Z,3.28
2024-02-29T05:23:13.230Z,3.60
2024-02-29T05:26:16.550Z,3.88
2024-02-29T05:29:19.658Z,3.80
2024-02-29T05:32:22.494Z,3.20
2024-02-29T05:35:25.521Z,3.33
2024-02-29T05:38:29.044Z,2.72
2024-02-29T05:41:31.529Z,2.92
2024-02-29T05:44:34.627Z,2.70
2024-02-29T05:47:37.719Z,2.92
2024-02-29T05:50:40.681Z,3.00
2024-02-29T05:53:43.847Z,2.80
2024-02-29T05:56:46.415Z,2.90
2024-02-29T05:59:48.762Z,3.03
2024-02-29T06:02:53.025Z,2.50
2024-02-29T06:05:56.252Z,2.88
2024-02-29T06:08:59.344Z,2.75
2024-02-29T06:12:01.503Z,3.20
2024-02-29T06:15:06.978Z,2.83
2024-02-29T06:18:11.345Z,3.05
2024-02-29T06:21:14.568Z,2.80
2024-02-29T06:24:17.380Z,2.90
2024-02-29T06:27:20.205Z,3.10
2024-02-29T06:30:22.559Z,2.97
2024-02-29T06:33:25.669Z,3.20
2024-02-29T06:36:28.770Z,2.95
2024-02-29T06:39:31.612Z,2.95
2024-02-29T06:42:34.076Z,3.25
2024-02-29T06:45:36.431Z,3.42
2024-02-29T06:48:39.059Z,3.28
2024-02-29T06:51:42.465Z,3.10
2024-02-29T06:54:45.741Z,2.85
2024-02-29T06:57:48.966Z,3.00
2024-02-29T07:00:52.764Z,3.20
2024-02-29T07:03:56.146Z,3.25
2024-02-29T07:06:59.052Z,3.10
2024-02-29T07:10:02.437Z,3.03
2024-02-29T07:13:05.586Z,3.40
2024-02-29T07:16:08.001Z,2.97
2024-02-29T07:19:11.803Z,3.50
2024-02-29T07:22:15.476Z,3.05
2024-02-29T07:25:19.667Z,3.38
2024-02-29T07:28:22.830Z,3.00
2024-02-29T07:31:25.509Z,3.30
2024-02-29T07:34:28.142Z,3.10
2024-02-29T07:37:30.938Z,3.00
2024-02-29T07:40:34.211Z,2.90
2024-02-29T07:43:37.836Z,3.30
2024-02-29T07:46:40.206Z,2.85
2024-02-29T07:49:42.540Z,2.90
2024-02-29T07:52:45.662Z,2.58
2024-02-29T07:55:49.000Z,2.25
2024-02-29T07:58:52.235Z,2.70
2024-02-29T08:01:55.297Z,2.53
2024-02-29T08:04:59.378Z,2.40
2024-02-29T08:08:02.869Z,2.17
2024-02-29T08:11:05.972Z,2.22
2024-02-29T08:14:08.847Z,2.47
2024-02-29T08:17:12.432Z,2.05
2024-02-29T08:20:15.543Z,2.35
2024-02-29T08:23:18.682Z,2.40
2024-02-29T08:26:21.684Z,2.38
2024-02-29T08:29:24.663Z,2.58
2024-02-29T08:32:27.901Z,2.35
2024-02-29T08:35:31.329Z,2.33
2024-02-29T08:38:35.132Z,2.25
2024-02-29T08:41:37.779Z,2.60
2024-02-29T08:44:40.525Z,2.25
2024-02-29T08:47:43.473Z,2.42
2024-02-29T08:50:46.674Z,2.30
2024-02-29T08:53:49.150Z,2.80
2024-02-29T08:56:52.693Z,2.35
2024-02-29T08:59:56.402Z,2.25
2024-02-29T09:03:00.043Z,2.35
2024-02-29T09:06:03.643Z,2.55
2024-02-29T09:09:06.617Z,2.05
2024-02-29T09:12:10.377Z,2.55
2024-02-29T09:15:14.359Z,2.60
2024-02-29T09:18:17.507Z,2.45
2024-02-29T09:21:20.739Z,2.47
2024-02-29T09:24:24.261Z,2.47
2024-02-29T09:27:27.399Z,2.42
2024-02-29T09:30:30.023Z,2.65
2024-02-29T09:33:32.459Z,2.25
2024-02-29T09:36:35.666Z,2.30
2024-02-29T09:39:38.500Z,2.33
2024-02-29T09:42:42.211Z,2.60
2024-02-29T09:45:45.465Z,2.20
2024-02-29T09:48:49.476Z,2.30
2024-02-29T09:51:52.530Z,2.70
2024-02-29T09:54:55.691Z,2.28
2024-02-29T09:57:59.216Z,2.58
2024-02-29T10:01:02.784Z,2.30
2024-02-29T10:04:06.112Z,2.40
2024-02-29T10:07:09.298Z,2.47
2024-02-29T10:10:11.942Z,2.72
2024-02-29T10:13:14.592Z,2.35
2024-02-29T10:16:17.398Z,2.30
2024-02-29T10:19:21.020Z,2.38
2024-02-29T10:22:24.421Z,2.70
2024-02-29T10:25:27.788Z,2.80
2024-02-29T10:28:30.647Z,2.45
2024-02-29T10:31:34.217Z,2.42
2024-02-29T10:34:37.162Z,2.45
2024-02-29T10:37:39.706Z,2.60
2024-02-29T10:40:42.773Z,2.42
2024-02-29T10:43:47.025Z,2.40
2024-02-29T10:46:50.220Z,2.55
2024-02-29T10:49:52.534Z,2.45
2024-02-29T10:52:56.044Z,2.55
2024-02-29T10:55:59.709Z,2.47
2024-02-29T10:59:02.092Z,2.60
2024-02-29T11:02:05.328Z,2.40
2024-02-29T11:05:08.846Z,2.55
2024-02-29T11:08:11.770Z,2.60
2024-02-29T11:11:14.570Z,2.78
2024-02-29T11:14:17.367Z,2.47
2024-02-29T11:17:20.239Z,2.20
2024-02-29T11:20:23.690Z,2.58
2024-02-29T11:23:27.253Z,2.20
2024-02-29T11:26:30.510Z,2.60
2024-02-29T11:29:33.783Z,2.20
2024-02-29T11:32:37.291Z,2.38
2024-02-29T11:35:40.409Z,2.30
2024-02-29T11:38:43.498Z,2.78
2024-02-29T11:41:46.134Z,2.40
2024-02-29T11:44:49.173Z,2.60
2024-02-29T11:47:52.070Z,2.25
2024-02-29T11:50:55.349Z,2.40
2024-02-29T11:53:57.659Z,2.72
2024-02-29T11:57:00.603Z,2.35
2024-02-29T12:00:03.211Z,2.33
2024-02-29T12:03:07.609Z,2.65
2024-02-29T12:06:10.725Z,2.38
2024-02-29T12:09:13.428Z,2.25
2024-02-29T12:12:16.547Z,2.47
2024-02-29T12:15:18.943Z,2.05
2024-02-29T12:18:21.763Z,2.03
2024-02-29T12:21:24.613Z,2.28
2024-02-29T12:24:27.677Z,2.40
2024-02-29T12:27:31.141Z,2.20
2024-02-29T12:30:34.456Z,1.98
2024-02-29T12:33:38.618Z,2.28
2024-02-29T12:36:42.343Z,2.30
2024-02-29T12:39:45.684Z,2.20
2024-02-29T12:42:49.699Z,2.33
2024-02-29T12:45:52.951Z,1.95
2024-02-29T12:48:55.655Z,2.13
2024-02-29T12:51:59.453Z,2.10
2024-02-29T12:55:02.270Z,2.10
2024-02-29T12:58:05.151Z,2.05
2024-02-29T13:01:08.745Z,2.05
2024-02-29T13:04:12.096Z,2.13
2024-02-29T13:07:15.614Z,1.95
2024-02-29T13:10:18.390Z,2.25
2024-02-29T13:13:22.366Z,2.20
2024-02-29T13:16:25.526Z,2.30
2024-02-29T13:19:28.377Z,2.22
2024-02-29T13:22:31.437Z,2.13
2024-02-29T13:25:34.031Z,2.25
2024-02-29T13:28:37.401Z,2.20
2024-02-29T13:31:40.997Z,2.17
2024-02-29T13:34:43.735Z,2.25
2024-02-29T13:37:46.636Z,2.38
2024-02-29T13:40:49.448Z,2.15
2024-02-29T13:43:52.192Z,2.08
2024-02-29T13:46:55.066Z,2.08
2024-02-29T13:49:57.900Z,1.88
2024-02-29T13:53:00.750Z,2.20
2024-02-29T13:56:03.905Z,2.05
2024-02-29T13:59:07.007Z,1.98
2024-02-29T14:02:10.660Z,2.10
2024-02-29T14:05:14.378Z,1.90
2024-02-29T14:08:17.578Z,2.00
2024-02-29T14:11:20.866Z,2.20
2024-02-29T14:14:23.387Z,2.10
2024-02-29T14:17:26.645Z,1.90
2024-02-29T14:20:30.352Z,1.80
2024-02-29T14:23:34.199Z,1.88
2024-02-29T14:26:37.694Z,1.95
2024-02-29T14:29:40.376Z,1.90
2024-02-29T14:32:43.812Z,2.17
2024-02-29T14:35:46.651Z,2.08
2024-02-29T14:38:49.361Z,1.90
2024-02-29T14:41:52.869Z,2.00
2024-02-29T14:44:56.477Z,2.08
2024-02-29T14:47:59.414Z,2.13
2024-02-29T14:51:02.640Z,1.75
2024-02-29T14:54:06.068Z,2.17
2024-02-29T14:57:09.121Z,2.30
2024-02-29T15:00:12.524Z,2.25
2024-02-29T15:03:15.598Z,2.15
2024-02-29T15:06:18.044Z,2.10
2024-02-29T15:09:20.986Z,2.00
2024-02-29T15:12:24.143Z,1.90
2024-02-29T15:15:27.362Z,2.08
2024-02-29T15:18:30.409Z,1.90
2024-02-29T15:21:33.080Z,1.70
2024-02-29T15:24:35.633Z,2.00
2024-02-29T15:27:38.743Z,2.30
2024-02-29T15:30:41.346Z,1.75
2024-02-29T15:33:44.357Z,2.10
2024-02-29T15:36:47.628Z,2.05
2024-02-29T15:39:51.126Z,2.00
2024-02-29T15:42:54.324Z,2.15
2024-02-29T15:45:57.871Z,2.00
2024-02-29T15:49:00.597Z,2.05
2024-02-29T15:52:03.961Z,2.22
2024-02-29T15:55:07.170Z,2.00
2024-02-29T15:58:10.355Z,2.33
2024-02-29T16:01:13.329Z,2.03
2024-02-29T16:04:16.567Z,1.75
2024-02-29T16:07:19.876Z,1.85
2024-02-29T16:10:23.105Z,2.20
2024-02-29T16:13:26.509Z,1.85
2024-02-29T16:16:29.838Z,2.22
2024-02-29T16:19:33.599Z,1.60
2024-02-29T16:22:36.594Z,2.08
2024-02-29T16:25:39.312Z,1.98
2024-02-29T16:28:42.305Z,2.10
2024-02-29T16:31:44.950Z,2.03
2024-02-29T16:34:47.809Z,2.00
2024-02-29T16:37:50.732Z,1.85
2024-02-29T16:40:53.393Z,2.05
2024-02-29T16:43:56.133Z,2.10
2024-02-29T16:46:58.471Z,2.03
2024-02-29T16:50:01.305Z,2.05
2024-02-29T16:53:04.373Z,2.20
2024-02-29T16:56:07.568Z,2.10
2024-02-29T16:59:10.154Z,1.90
2024-02-29T17:02:16.279Z,1.63
2024-02-29T17:05:20.942Z,1.90
2024-02-29T17:08:24.039Z,1.58
2024-02-29T17:11:26.369Z,1.60
2024-02-29T17:14:29.217Z,1.60
2024-02-29T17:17:32.641Z,1.60
2024-02-29T17:20:36.526Z,1.60
2024-02-29T17:23:39.631Z,1.65
2024-02-29T17:26:42.360Z,1.35
2024-02-29T17:29:45.952Z,1.90
2024-02-29T17:32:49.710Z,1.60
2024-02-29T17:35:52.055Z,2.00
2024-02-29T17:38:54.865Z,1.88
2024-02-29T17:41:58.167Z,1.90
2024-02-29T17:45:01.695Z,1.65
2024-02-29T17:48:05.269Z,1.60
2024-02-29T17:51:08.835Z,1.95
2024-02-29T17:54:11.980Z,2.03
2024-02-29T17:57:15.155Z,1.98
2024-02-29T18:00:17.858Z,1.90
2024-02-29T18:03:20.912Z,1.75
2024-02-29T18:06:23.310Z,1.85
2024-02-29T18:09:26.391Z,2.00
2024-02-29T18:12:29.403Z,1.80
2024-02-29T18:15:32.146Z,1.88
2024-02-29T18:18:34.914Z,1.80
2024-02-29T18:21:37.848Z,1.95
2024-02-29T18:24:41.424Z,2.00
2024-02-29T18:27:44.865Z,1.70
2024-02-29T18:30:47.487Z,1.88
2024-02-29T18:33:50.701Z,1.70
2024-02-29T18:36:53.636Z,1.80
2024-02-29T18:39:56.724Z,1.70
2024-02-29T18:42:59.836Z,1.70
2024-02-29T18:46:06.105Z,2.17
2024-02-29T18:49:10.424Z,1.95
2024-02-29T18:52:15.554Z,1.77
2024-02-29T18:55:19.921Z,1.60
2024-02-29T18:58:23.694Z,1.90
2024-02-29T19:01:27.874Z,1.90
2024-02-29T19:04:30.617Z,1.70
2024-02-29T19:07:33.685Z,1.80
2024-02-29T19:10:36.499Z,2.00
2024-02-29T19:13:39.211Z,1.98
2024-02-29T19:16:42.319Z,1.75
2024-02-29T19:19:45.581Z,1.63
2024-02-29T19:22:49.302Z,1.90
2024-02-29T19:25:52.521Z,1.90
2024-02-29T19:28:55.185Z,1.95
2024-02-29T19:31:58.363Z,1.90
2024-02-29T19:35:01.828Z,1.70
2024-02-29T19:38:06.450Z,1.73
2024-02-29T19:41:10.236Z,1.90
2024-02-29T19:44:13.589Z,1.90
2024-02-29T19:47:16.705Z,1.83
2024-02-29T19:50:19.048Z,1.75
2024-02-29T19:53:22.196Z,1.70
2024-02-29T19:56:24.819Z,2.10
2024-02-29T19:59:27.983Z,1.92
2024-02-29T20:02:31.047Z,1.95
2024-02-29T20:05:34.308Z,2.08
2024-02-29T20:08:38.331Z,1.83
2024-02-29T20:11:41.483Z,1.77
2024-02-29T20:14:44.899Z,2.05
2024-02-29T20:17:48.255Z,1.90
2024-02-29T20:20:51.428Z,1.80
2024-02-29T20:23:53.816Z,1.52
2024-02-29T20:26:56.650Z,1.73
2024-02-29T20:29:59.069Z,1.60
2024-02-29T20:33:02.377Z,1.60
2024-02-29T20:36:05.969Z,1.40
2024-02-29T20:39:08.617Z,1.80
2024-02-29T20:42:11.200Z,1.70
2024-02-29T20:45:16.193Z,1.60
2024-02-29T20:48:19.868Z,1.67
2024-02-29T20:51:23.136Z,1.75
2024-02-29T20:54:26.306Z,1.50
2024-02-29T20:57:29.038Z,2.03
2024-02-29T21:00:32.699Z,1.88
2024-02-29T21:03:35.068Z,1.85
2024-02-29T21:06:38.042Z,1.73
2024-02-29T21:09:40.903Z,1.50
2024-02-29T21:12:43.617Z,2.08
2024-02-29T21:15:47.240Z,1.88
2024-02-29T21:18:51.228Z,2.05
2024-02-29T21:21:54.346Z,1.83
2024-02-29T21:24:57.235Z,2.00
2024-02-29T21:27:59.732Z,1.90
2024-02-29T21:31:03.384Z,2.03
2024-02-29T21:34:06.599Z,2.00
2024-02-29T21:37:09.225Z,2.05
2024-02-29T21:40:12.784Z,2.10
2024-02-29T21:43:16.475Z,2.33
2024-02-29T21:46:19.185Z,2.40
2024-02-29T21:49:22.391Z,2.17
2024-02-29T21:52:25.426Z,2.08
2024-02-29T21:55:28.689Z,2.20
2024-02-29T21:58:32.248Z,2.10
2024-02-29T22:01:35.754Z,2.22
2024-02-29T22:04:38.883Z,2.30
2024-02-29T22:07:41.693Z,2.10
2024-02-29T22:10:47.283Z,2.40
2024-02-29T22:13:51.726Z,2.22
2024-02-29T22:16:54.140Z,2.38
2024-02-29T22:19:56.821Z,2.30
2024-02-29T22:23:00.459Z,2.15
2024-02-29T22:26:02.777Z,2.10
2024-02-29T22:29:05.219Z,2.20
2024-02-29T22:32:08.069Z,2.25
2024-02-29T22:35:11.003Z,2.35
2024-02-29T22:38:13.802Z,2.40
2024-02-29T22:41:16.932Z,2.53
2024-02-29T22:44:19.825Z,2.45
2024-02-29T22:47:22.627Z,2.25
2024-02-29T22:50:25.016Z,2.20
2024-02-29T22:53:27.336Z,2.30
2024-02-29T22:56:30.059Z,2.03
2024-02-29T22:59:33.267Z,2.60
2024-02-29T23:02:36.391Z,2.38
2024-02-29T23:05:38.736Z,2.38
2024-02-29T23:08:41.299Z,2.10
2024-02-29T23:11:44.215Z,2.38
2024-02-29T23:14:48.019Z,2.20
2024-02-29T23:17:51.128Z,2.25
2024-02-29T23:20:53.759Z,1.95
2024-02-29T23:23:56.893Z,2.50
2024-02-29T23:26:59.989Z,2.28
2024-02-29T23:30:02.680Z,2.08
2024-02-29T23:33:05.826Z,2.00
2024-02-29T23:36:08.500Z,2.13
2024-02-29T23:39:11.105Z,2.38
2024-02-29T23:42:13.848Z,2.50
2024-02-29T23:45:17.740Z,2.00
2024-02-29T23:48:20.591Z,2.50
2024-02-29T23:51:23.114Z,2.08
2024-02-29T23:54:25.717Z,2.38
2024-02-29T23:57:28.548Z,2.10
